Data for 09/05/2013

Time Sea-Level Adjusted Pressure Absolute Pressure Temperature Relative Humidity Dew Point   
(mb) (inHg) (mb) (inHg) (C) (F) (%) (C) (F)
00:05 1023 30.21 852 25.16 19.3 66.8 51 9.1 48.3
00:10 1023 30.21 852 25.16 19.3 66.8 51 9 48.2
00:15 1023 30.21 852 25.16 19.2 66.5 51 9 48.1
00:20 1023 30.21 852 25.16 19.3 66.7 52 9.3 48.7
00:25 1023 30.21 852 25.16 19.3 66.7 52 9.3 48.7
00:30 1023 30.21 852 25.16 19.2 66.5 53 9.5 49.1
00:35 1023 30.21 852 25.16 19.6 67.3 48 8.4 47.2
00:40 1023 30.21 852 25.16 20.2 68.3 50 9.4 49
00:45 1023 30.21 852 25.16 19.8 67.6 50 9.3 48.8
00:50 1023 30.21 852 25.16 20 67.9 48 8.8 47.8
00:55 1023 30.21 852 25.16 20 68 51 9.7 49.5
01:00 1023 30.21 852 25.16 19.1 66.4 52 9.2 48.5
01:05 1023 30.21 852 25.16 18.9 66 55 9.7 49.5
01:10 1023 30.21 852 25.16 18.3 64.9 57 9.8 49.7
01:15 1023 30.21 852 25.16 17.6 63.7 58 9.3 48.8
01:20 1023 30.21 852 25.16 17.7 63.8 57 9.1 48.5
01:25 1023 30.21 852 25.16 17.7 63.9 56 9 48.2
01:30 1023 30.21 852 25.16 18.3 65 51 8.1 46.5
01:35 1023 30.21 852 25.16 19.3 66.8 52 9.3 48.8
01:40 1023 30.21 852 25.16 19.1 66.4 56 10.2 50.3
01:45 1023 30.21 852 25.16 18.9 65.9 56 9.9 49.8
01:50 1023 30.21 852 25.16 18.4 65.1 56 9.6 49.3
01:55 1022 30.18 852 25.16 18.1 64.5 58 9.7 49.4
02:00 1022 30.18 852 25.16 17.8 64 58 9.6 49.3
02:05 1022 30.18 851 25.13 17.8 64 57 9.3 48.7
02:10 1022 30.18 851 25.13 18 64.4 55 8.9 48.1
02:15 1022 30.18 851 25.13 18.6 65.4 54 9.1 48.3
02:20 1022 30.18 851 25.13 18.4 65 55 9.3 48.7
02:25 1022 30.18 851 25.13 17.9 64.3 57 9.3 48.7
02:30 1022 30.18 851 25.13 17.7 63.9 58 9.4 48.8
02:35 1022 30.18 851 25.13 17.6 63.6 59 9.5 49
02:40 1022 30.18 851 25.13 17.2 62.9 59 9.3 48.7
02:45 1022 30.18 851 25.13 17 62.5 59 9.1 48.3
02:50 1022 30.18 851 25.13 16.9 62.5 59 9 48.2
02:55 1022 30.18 851 25.13 17 62.6 59 9 48.1
03:00 1022 30.18 851 25.13 17.2 63 58 9 48.2
03:05 1022 30.18 851 25.13 17.4 63.3 58 9 48.2
03:10 1022 30.18 851 25.13 17.4 63.2 57 9 48.2
03:15 1022 30.18 851 25.13 17.5 63.5 56 8.7 47.7
03:20 1022 30.18 851 25.13 17.7 63.8 58 9.5 49.1
03:25 1022 30.18 851 25.13 17.5 63.5 59 9.6 49.2
03:30 1022 30.18 851 25.13 17.4 63.4 59 9.4 49
03:35 1022 30.18 851 25.13 17 62.6 59 9.1 48.4
03:40 1022 30.18 851 25.13 17 62.6 59 9 48.2
03:45 1022 30.18 851 25.13 17.3 63.1 59 9.3 48.8
03:50 1022 30.18 851 25.13 17.3 63.2 60 9.5 49.1
03:55 1022 30.18 851 25.13 17.1 62.9 62 9.8 49.6
04:00 1022 30.18 851 25.13 17 62.6 60 9.3 48.8
04:05 1022 30.18 851 25.13 16.7 62.1 62 9.5 49.1
04:10 1022 30.18 851 25.13 16.8 62.3 61 9.4 49
04:15 1022 30.18 851 25.13 17.1 62.8 61 9.7 49.4
04:20 1022 30.18 851 25.13 16.9 62.3 62 9.7 49.4
04:25 1022 30.18 851 25.13 16.9 62.4 62 9.7 49.5
04:30 1022 30.18 851 25.13 16.8 62.3 63 9.9 49.8
04:35 1022 30.18 851 25.13 16.8 62.2 61 9.3 48.8
04:40 1022 30.18 851 25.13 16.8 62.2 61 9.3 48.7
04:45 1022 30.18 851 25.13 16.8 62.3 61 9.3 48.7
04:50 1022 30.18 851 25.13 17.1 62.8 59 9.2 48.6
04:55 1022 30.18 851 25.13 17.5 63.4 58 9.1 48.4
05:00 1022 30.18 851 25.13 17.6 63.6 58 9.4 49
05:05 1022 30.18 851 25.13 17.5 63.4 62 10.1 50.2
05:10 1022 30.18 851 25.13 17.7 63.8 58 9.3 48.7
05:15 1022 30.18 851 25.13 17.4 63.4 59 9.4 48.9
05:20 1022 30.18 851 25.13 17.3 63.1 58 9.1 48.4
05:25 1022 30.18 851 25.13 16.9 62.4 59 9 48.3
05:30 1022 30.18 852 25.16 16.7 62 60 8.9 47.9
05:35 1022 30.18 852 25.16 16.7 62.1 60 9.1 48.3
05:40 1022 30.18 852 25.16 16.9 62.4 59 9 48.1
05:45 1022 30.18 852 25.16 17.4 63.4 59 9.3 48.8
05:50 1022 30.18 852 25.16 17.5 63.4 59 9.4 49
05:55 1022 30.18 852 25.16 17.4 63.3 59 9.5 49
06:00 1022 30.18 852 25.16 17.2 62.9 59 9.2 48.6
06:05 1022 30.18 852 25.16 17.4 63.4 58 9.2 48.6
06:10 1022 30.18 852 25.16 16.9 62.5 60 9.3 48.7
06:15 1022 30.18 852 25.16 17 62.5 58 8.8 47.8
06:20 1022 30.18 852 25.16 17.2 63 58 9 48.1
06:25 1022 30.18 852 25.16 17.2 62.9 59 9.1 48.4
06:30 1022 30.18 852 25.16 17.3 63.1 62 10 49.9
06:35 1023 30.21 852 25.16 17.4 63.4 59 9.3 48.8
06:40 1023 30.21 852 25.16 17.2 62.9 60 9.5 49.1
06:45 1023 30.21 852 25.16 16.9 62.5 61 9.4 49
06:50 1022 30.18 852 25.16 17.2 62.9 59 9.3 48.7
06:55 1022 30.18 852 25.16 17.6 63.7 56 8.8 47.9
07:00 1023 30.21 852 25.16 18 64.5 54 8.8 47.9
07:05 1023 30.21 852 25.16 18.1 64.5 55 8.9 48.1
07:10 1023 30.21 852 25.16 18.1 64.5 54 8.7 47.7
07:15 1023 30.21 852 25.16 18.2 64.7 54 8.8 47.9
07:20 1023 30.21 852 25.16 18.2 64.8 55 9.3 48.7
07:25 1023 30.21 852 25.16 18.1 64.6 57 9.5 49.2
07:30 1023 30.21 852 25.16 18.5 65.4 55 9.6 49.2
07:35 1023 30.21 852 25.16 18.3 64.9 57 9.8 49.7
07:40 1023 30.21 852 25.16 17.9 64.3 58 9.7 49.4
07:45 1023 30.21 852 25.16 17.8 64 57 9.2 48.5
07:50 1023 30.21 852 25.16 18 64.3 57 9.4 49
07:55 1023 30.21 852 25.16 18.2 64.7 57 9.5 49.1
08:00 1023 30.21 852 25.16 18.3 64.9 55 9.2 48.6
08:05 1023 30.21 852 25.16 18.5 65.3 54 9.1 48.3
08:10 1023 30.21 852 25.16 18.8 65.8 53 9.2 48.5
08:15 1023 30.21 852 25.16 19.1 66.4 56 10.2 50.3
08:20 1023 30.21 852 25.16 18.8 65.8 59 10.6 51.1
08:25 1023 30.21 852 25.16 18.4 65.1 58 10.1 50.1
08:30 1023 30.21 852 25.16 18.4 65.1 60 10.5 51
08:35 1023 30.21 852 25.16 18.7 65.6 56 9.8 49.6
08:40 1023 30.21 852 25.16 19.1 66.3 55 9.9 49.8
08:45 1023 30.21 852 25.16 19.3 66.7 55 10.1 50.2
08:50 1023 30.21 852 25.16 19.6 67.2 60 11.6 52.9
08:55 1023 30.21 852 25.16 19.8 67.7 52 9.9 49.8
09:00 1022 30.18 852 25.16 20.1 68.2 50 9.6 49.3
09:05 1022 30.18 852 25.16 20.5 68.9 51 10.1 50.1
09:10 1022 30.18 852 25.16 21.1 69.9 49 10 50.1
09:15 1022 30.18 852 25.16 21.3 70.4 49 10.2 50.4
09:20 1022 30.18 852 25.16 21.6 70.9 47 10.1 50.2
09:25 1022 30.18 851 25.13 22.1 71.7 47 10.4 50.8
09:30 1022 30.18 851 25.13 22.2 72 44 9.6 49.4
09:35 1022 30.18 851 25.13 22.2 71.9 44 9.5 49.2
09:40 1022 30.18 852 25.16 22.7 72.9 41 8.9 48
09:45 1022 30.18 852 25.16 22.8 73.1 41 9.2 48.6
09:50 1022 30.18 852 25.16 23.2 73.8 40 9 48.2
09:55 1022 30.18 851 25.13 23.6 74.5 40 9.2 48.6
10:00 1022 30.18 852 25.16 23.8 74.8 40 9.7 49.5
10:05 1022 30.18 852 25.16 23.8 74.8 41 9.8 49.6
10:10 1022 30.18 852 25.16 24.7 76.5 40 10.3 50.5
10:15 1022 30.18 852 25.16 24.4 75.9 40 10.2 50.3
10:20 1022 30.18 851 25.13 24 75.1 41 10 49.9
10:25 1022 30.18 851 25.13 23.9 75.1 40 9.7 49.5
10:30 1022 30.18 851 25.13 24.2 75.6 40 9.8 49.7
10:35 1022 30.18 851 25.13 24.7 76.4 39 9.9 49.9
10:40 1022 30.18 851 25.13 24.9 76.7 39 10.2 50.4
10:45 1022 30.18 851 25.13 24.8 76.7 40 10.6 51.1
10:50 1022 30.18 851 25.13 24.4 75.9 40 10.2 50.3
10:55 1022 30.18 852 25.16 24.4 75.8 40 10.1 50.2
11:00 1022 30.18 852 25.16 24.2 75.5 41 10.2 50.3
11:05 1022 30.18 852 25.16 23.9 75 42 10.4 50.7
11:10 1022 30.18 852 25.16 23.7 74.7 42 10.3 50.5
11:15 1022 30.18 852 25.16 23.5 74.2 44 10.6 51.2
11:20 1022 30.18 851 25.13 23.4 74 43 10.4 50.7
11:25 1022 30.18 851 25.13 23.3 74 44 10.4 50.8
11:30 1022 30.18 851 25.13 23.3 73.9 43 10 50.1
11:35 1022 30.18 852 25.16 23.9 75 41 9.9 49.9
11:40 1022 30.18 851 25.13 24 75.1 41 10.1 50.1
11:45 1022 30.18 851 25.13 23.6 74.5 41 9.9 49.9
11:50 1022 30.18 851 25.13 24 75.1 41 10.1 50.1
11:55 1022 30.18 851 25.13 24.2 75.5 41 10.2 50.3
12:00 1022 30.18 851 25.13 24.5 76 39 9.8 49.7
12:05 1022 30.18 851 25.13 24.4 75.9 41 10.7 51.2
12:10 1022 30.18 851 25.13 23.7 74.7 44 10.8 51.5
12:15 1022 30.18 851 25.13 23.5 74.4 44 10.6 51.1
12:20 1022 30.18 851 25.13 23.7 74.7 42 10.3 50.5
12:25 1022 30.18 851 25.13 24.1 75.3 40 10 50
12:30 1022 30.18 851 25.13 24.4 75.8 40 10.2 50.3
12:35 1022 30.18 851 25.13 24.4 75.8 40 10.1 50.2
12:40 1022 30.18 851 25.13 24.4 75.9 41 10.5 50.9
12:45 1022 30.18 851 25.13 24 75.3 42 10.5 51
12:50 1022 30.18 851 25.13 23.8 74.8 43 10.5 51
12:55 1023 30.21 852 25.16 23.6 74.5 45 11 51.8
13:00 1023 30.21 852 25.16 22.7 72.9 52 12.4 54.3
13:05 1023 30.21 852 25.16 20.8 69.5 54 11.3 52.4
13:10 1023 30.21 852 25.16 20.7 69.2 59 12.6 54.7
13:15 1023 30.21 852 25.16 20.6 69.2 57 12.1 53.7
13:20 1023 30.21 852 25.16 21.2 70.2 56 12.2 54
13:25 1023 30.21 852 25.16 21.5 70.6 54 12 53.6
13:30 1023 30.21 852 25.16 21 69.7 74 16.1 61
13:35 1023 30.21 852 25.16 19 66.2 74 14.3 57.7
13:40 1023 30.21 852 25.16 18.8 65.8 75 14.4 57.9
13:45 1023 30.21 852 25.16 18.8 65.8 77 14.7 58.4
13:50 1022 30.18 852 25.16 19.5 67.1 70 14 57.3
13:55 1022 30.18 852 25.16 20.3 68.6 68 14.2 57.6
14:00 1022 30.18 851 25.13 21 69.9 64 14 57.1
14:05 1022 30.18 851 25.13 21.6 70.9 64 14.6 58.3
14:10 1022 30.18 851 25.13 22.1 71.8 62 14.6 58.3
14:15 1022 30.18 851 25.13 22.2 71.9 60 14.1 57.4
14:20 1022 30.18 851 25.13 22.4 72.2 57 13.6 56.5
14:25 1022 30.18 851 25.13 22.6 72.6 58 14.1 57.4
14:30 1022 30.18 851 25.13 22.6 72.8 55 13.4 56.1
14:35 1022 30.18 851 25.13 23.2 73.8 53 13.2 55.8
14:40 1022 30.18 851 25.13 23.3 73.9 47 11.6 52.8
14:45 1021 30.15 851 25.13 23.9 75 45 11.4 52.6
14:50 1021 30.15 851 25.13 24.2 75.6 46 12.1 53.8
14:55 1021 30.15 851 25.13 24.7 76.4 44 11.8 53.3
15:00 1021 30.15 850 25.1 24.9 76.9 41 11 51.8
15:05 1021 30.15 850 25.1 24.7 76.5 40 10.3 50.5
15:10 1021 30.15 850 25.1 25.4 77.6 39 10.6 51.1
15:15 1021 30.15 850 25.1 25.8 78.5 37 10.3 50.6
15:20 1021 30.15 850 25.1 26.3 79.4 34 9.6 49.3
15:25 1021 30.15 850 25.1 26.3 79.4 38 11.1 51.9
15:30 1021 30.15 850 25.1 26.4 79.5 34 9.5 49
15:35 1021 30.15 850 25.1 26.7 80 33 9.3 48.8
15:40 1021 30.15 850 25.1 27 80.6 32 9 48.3
15:45 1021 30.15 850 25.1 27.3 81.2 31 9.1 48.4
15:50 1021 30.15 850 25.1 27.7 81.9 31 9.4 48.9
15:55 1021 30.15 850 25.1 27.7 81.8 31 9.5 49
16:00 1020 30.12 850 25.1 27.7 81.9 33 10.2 50.3
16:05 1020 30.12 849 25.07 27.5 81.5 34 10.7 51.2
16:10 1020 30.12 849 25.07 27.3 81.1 37 11.4 52.5
16:15 1020 30.12 849 25.07 26.8 80.2 36 10.5 50.9
16:20 1020 30.12 849 25.07 27 80.6 35 10.6 51.1
16:25 1020 30.12 849 25.07 27.3 81.2 35 10.8 51.4
16:30 1020 30.12 849 25.07 27.1 80.8 37 11.2 52.2
16:35 1020 30.12 849 25.07 27 80.6 35 10.4 50.7
16:40 1020 30.12 849 25.07 26.6 79.9 37 10.8 51.4
16:45 1020 30.12 849 25.07 26.7 80 35 10 50
16:50 1020 30.12 849 25.07 27 80.6 34 10 50
16:55 1019 30.09 849 25.07 27.1 80.8 35 10.7 51.2
17:00 1019 30.09 849 25.07 27 80.6 33 9.6 49.3
17:05 1019 30.09 849 25.07 27 80.7 33 9.8 49.7
17:10 1019 30.09 849 25.07 27.1 80.7 33 9.6 49.3
17:15 1019 30.09 849 25.07 27.1 80.8 33 9.8 49.7
17:20 1019 30.09 848 25.04 26.8 80.3 33 9.4 48.9
17:25 1019 30.09 848 25.04 26.6 79.9 33 9.4 48.9
17:30 1019 30.09 848 25.04 26.6 79.9 33 9.4 48.9
17:35 1019 30.09 848 25.04 26.6 79.9 33 9.4 48.9
17:40 1019 30.09 848 25.04 26.5 79.7 34 9.5 49.1
17:45 1019 30.09 848 25.04 26.4 79.5 35 9.9 49.9
17:50 1019 30.09 848 25.04 26.3 79.3 35 9.9 49.8
17:55 1019 30.09 848 25.04 26.1 79 36 10 50
18:00 1019 30.09 848 25.04 26 78.8 36 10.1 50.2
18:05 1019 30.09 849 25.07 25.9 78.6 36 10 50
18:10 1019 30.09 849 25.07 25.7 78.3 37 10.1 50.1
18:15 1019 30.09 848 25.04 25.6 78 37 9.9 49.7
18:20 1019 30.09 848 25.04 25.5 77.8 37 10 50
18:25 1019 30.09 848 25.04 25.3 77.6 38 10.1 50.2
18:30 1019 30.09 848 25.04 25.3 77.5 38 10.1 50.2
18:35 1019 30.09 848 25.04 25.2 77.3 41 11 51.8
18:40 1019 30.09 848 25.04 24.9 76.8 43 11.6 52.8
18:45 1019 30.09 848 25.04 24.2 75.6 48 12.6 54.6
18:50 1019 30.09 849 25.07 23.4 74.1 49 12.3 54.2
18:55 1019 30.09 849 25.07 22.9 73.2 50 12.2 54
19:00 1019 30.09 849 25.07 22.8 73 54 13.2 55.8
19:05 1019 30.09 849 25.07 22.6 72.7 54 12.8 55.1
19:10 1019 30.09 849 25.07 22.4 72.3 56 13.4 56.1
19:15 1019 30.09 849 25.07 22.4 72.2 57 13.7 56.6
19:20 1020 30.12 849 25.07 22.4 72.2 53 12.5 54.5
19:25 1020 30.12 849 25.07 22.3 72.1 52 12.1 53.8
19:30 1020 30.12 849 25.07 22.1 71.8 53 12.3 54.2
19:35 1020 30.12 849 25.07 21.9 71.3 54 12.4 54.2
19:40 1020 30.12 849 25.07 21.7 71 55 12.3 54.1
19:45 1020 30.12 849 25.07 21.6 70.8 55 12.4 54.3
19:50 1020 30.12 849 25.07 21.6 70.9 53 11.8 53.3
19:55 1020 30.12 850 25.1 21.9 71.4 52 11.8 53.2
20:00 1020 30.12 850 25.1 21.9 71.4 54 12.3 54.1
20:05 1021 30.15 850 25.1 21.7 71 55 12.3 54.2
20:10 1021 30.15 850 25.1 21.5 70.7 57 12.8 55
20:15 1021 30.15 850 25.1 21.4 70.5 57 12.7 54.8
20:20 1021 30.15 850 25.1 21.6 70.9 58 13 55.4
20:25 1021 30.15 850 25.1 21.5 70.8 56 12.4 54.3
20:30 1021 30.15 850 25.1 21.7 71.1 56 12.6 54.7
20:35 1021 30.15 850 25.1 21.2 70.1 65 14.5 58.1
20:40 1021 30.15 850 25.1 20.2 68.4 65 13.5 56.4
20:45 1021 30.15 850 25.1 20.1 68.2 63 12.9 55.2
20:50 1021 30.15 850 25.1 20.3 68.5 61 12.7 54.9
20:55 1021 30.15 850 25.1 20.4 68.7 60 12.6 54.6
21:00 1021 30.15 850 25.1 20.6 69.1 60 12.8 55
21:05 1021 30.15 850 25.1 20.5 68.8 61 12.9 55.3
21:10 1021 30.15 850 25.1 20.3 68.5 68 14.2 57.5
21:15 1021 30.15 850 25.1 20.2 68.4 66 13.8 56.9
21:20 1021 30.15 850 25.1 20.2 68.3 63 13 55.3
21:25 1021 30.15 850 25.1 20.3 68.5 60 12.3 54.1
21:30 1021 30.15 850 25.1 20.6 69 66 14.1 57.3
21:35 1021 30.15 850 25.1 20.7 69.2 63 13.5 56.3
21:40 1021 30.15 850 25.1 20.4 68.7 64 13.5 56.2
21:45 1020 30.12 850 25.1 19.9 67.9 66 13.5 56.4
21:50 1020 30.12 850 25.1 19.6 67.2 64 12.7 54.8
21:55 1020 30.12 850 25.1 19.6 67.4 68 13.7 56.6
22:00 1020 30.12 850 25.1 19.1 66.5 69 13.4 56.1
22:05 1021 30.15 850 25.1 18.3 65 70 12.7 54.9
22:10 1021 30.15 850 25.1 18.4 65.1 68 12.5 54.4
22:15 1021 30.15 850 25.1 18.8 65.9 64 12.1 53.7
22:20 1022 30.18 851 25.13 19.3 66.7 64 12.3 54.2
22:25 1023 30.21 852 25.16 19.2 66.5 57 10.7 51.2
22:30 1023 30.21 852 25.16 19.1 66.4 58 10.8 51.5
22:35 1023 30.21 853 25.19 17.5 63.4 77 13.3 56
22:40 1024 30.24 853 25.19 15.4 59.8 82 12.4 54.3
22:45 1024 30.24 853 25.19 15.2 59.3 79 11.6 52.8
22:50 1024 30.24 853 25.19 15.4 59.7 78 11.7 53
22:55 1023 30.21 853 25.19 15.7 60.2 77 11.6 52.9
23:00 1023 30.21 853 25.19 15.8 60.4 80 12.3 54.2
23:05 1023 30.21 852 25.16 15.2 59.3 84 12.6 54.6
23:10 1023 30.21 852 25.16 14.8 58.6 82 11.7 53.1
23:15 1023 30.21 852 25.16 15.2 59.4 83 12.3 54.1
23:20 1023 30.21 852 25.16 15.1 59.2 83 12.3 54.1
23:25 1022 30.18 852 25.16 15 59.1 86 12.7 54.8
23:30 1022 30.18 851 25.13 14.8 58.6 84 12.2 53.9
23:35 1022 30.18 851 25.13 14.8 58.7 85 12.4 54.2
23:40 1022 30.18 851 25.13 14.6 58.2 85 12.1 53.8
23:45 1022 30.18 851 25.13 14.6 58.3 84 11.9 53.5
23:50 1022 30.18 851 25.13 14.6 58.3 84 12 53.6
23:55 1022 30.18 851 25.13 14.5 58.2 83 11.8 53.2
24:00 1022 30.18 851 25.13 14.6 58.2 83 11.7 53.1